createdAt,value
2019-03-11T00:00:11.854Z,2.47
2019-03-11T00:02:39.593Z,2.53
2019-03-11T00:05:07.841Z,2.03
2019-03-11T00:07:35.620Z,2.33
2019-03-11T00:10:03.887Z,3.63
2019-03-11T00:12:31.618Z,3.13
2019-03-11T00:15:00.968Z,3.13
2019-03-11T00:17:28.693Z,2.93
2019-03-11T00:19:56.449Z,3.63
2019-03-11T00:22:24.169Z,3.67
2019-03-11T00:24:51.934Z,3.50
2019-03-11T00:27:19.672Z,2.80
2019-03-11T00:29:49.356Z,2.97
2019-03-11T00:32:16.966Z,2.30
2019-03-11T00:34:44.908Z,3.10
2019-03-11T00:37:12.648Z,3.07
2019-03-11T00:39:40.413Z,3.23
2019-03-11T00:42:08.145Z,2.57
2019-03-11T00:44:35.886Z,2.87
2019-03-11T00:47:03.642Z,2.73
2019-03-11T00:49:31.379Z,3.40
2019-03-11T00:51:59.140Z,2.27
2019-03-11T00:54:26.845Z,2.30
2019-03-11T00:56:54.592Z,3.20
2019-03-11T00:59:22.321Z,2.77
2019-03-11T01:01:50.086Z,2.97
2019-03-11T01:04:20.215Z,2.97
2019-03-11T01:06:50.262Z,2.80
2019-03-11T01:09:18.378Z,2.97
2019-03-11T01:11:46.118Z,2.93
2019-03-11T01:14:13.853Z,3.17
2019-03-11T01:16:41.602Z,3.10
2019-03-11T01:19:09.392Z,2.97
2019-03-11T01:21:37.155Z,3.17
2019-03-11T01:24:04.893Z,3.67
2019-03-11T01:26:32.635Z,3.70
2019-03-11T01:29:00.370Z,3.53
2019-03-11T01:31:28.141Z,3.47
2019-03-11T01:33:55.893Z,3.90
2019-03-11T01:36:23.641Z,3.00
2019-03-11T01:38:51.388Z,3.30
2019-03-11T01:41:19.264Z,2.90
2019-03-11T01:43:46.989Z,2.83
2019-03-11T01:46:14.723Z,3.87
2019-03-11T01:48:42.459Z,2.97
2019-03-11T01:51:10.193Z,3.93
2019-03-11T01:53:37.913Z,3.10
2019-03-11T01:56:05.655Z,3.90
2019-03-11T01:58:33.425Z,3.37
2019-03-11T02:01:01.168Z,3.00
2019-03-11T02:03:28.926Z,3.73
2019-03-11T02:05:56.689Z,2.80
2019-03-11T02:08:24.438Z,3.67
2019-03-11T02:10:52.289Z,2.77
2019-03-11T02:13:22.320Z,3.67
2019-03-11T02:15:50.149Z,2.93
2019-03-11T02:18:17.937Z,3.13
2019-03-11T02:20:45.656Z,3.97
2019-03-11T02:23:13.414Z,3.80
2019-03-11T02:25:41.156Z,3.47
2019-03-11T02:28:08.915Z,3.17
2019-03-11T02:30:36.667Z,3.20
2019-03-11T02:33:04.403Z,3.53
2019-03-11T02:35:32.137Z,3.70
2019-03-11T02:38:00.001Z,4.00
2019-03-11T02:40:27.913Z,3.60
2019-03-11T02:42:55.623Z,4.03
2019-03-11T02:45:23.576Z,3.57
2019-03-11T02:47:51.326Z,3.63
2019-03-11T02:50:19.073Z,3.77
2019-03-11T02:52:46.823Z,3.60
2019-03-11T02:55:14.555Z,3.70
2019-03-11T02:57:42.309Z,4.37
2019-03-11T03:00:12.048Z,4.57
2019-03-11T03:02:49.763Z,3.50
2019-03-11T03:05:26.984Z,4.27
2019-03-11T03:07:54.834Z,3.53
2019-03-11T03:10:22.564Z,3.93
2019-03-11T03:12:50.329Z,3.57
2019-03-11T03:15:18.043Z,3.57
2019-03-11T03:17:45.793Z,3.60
2019-03-11T03:20:13.560Z,3.60
2019-03-11T03:22:41.296Z,3.57
2019-03-11T03:25:09.291Z,3.87
2019-03-11T03:27:37.072Z,4.03
2019-03-11T03:30:06.912Z,3.10
2019-03-11T03:32:34.665Z,3.67
2019-03-11T03:35:02.472Z,3.67
2019-03-11T03:37:30.221Z,4.10
2019-03-11T03:39:57.971Z,4.57
2019-03-11T03:42:25.700Z,3.90
2019-03-11T03:45:31.257Z,3.30
2019-03-11T03:47:59.142Z,3.97
2019-03-11T03:50:27.807Z,3.53
2019-03-11T03:52:55.562Z,3.30
2019-03-11T03:55:23.306Z,3.57
2019-03-11T03:57:51.030Z,3.70
2019-03-11T04:00:18.920Z,4.20
2019-03-11T04:02:46.720Z,3.83
2019-03-11T04:05:14.422Z,3.93
2019-03-11T04:07:42.182Z,5.00
2019-03-11T04:10:11.007Z,3.73
2019-03-11T04:12:38.734Z,3.40
2019-03-11T04:15:06.665Z,4.27
2019-03-11T04:17:34.386Z,3.70
2019-03-11T04:20:02.131Z,3.17
2019-03-11T04:22:31.194Z,3.23
2019-03-11T04:25:00.594Z,4.10
2019-03-11T04:27:28.391Z,3.97
2019-03-11T04:29:56.189Z,3.53
2019-03-11T04:32:23.945Z,4.00
2019-03-11T04:34:51.809Z,3.20
2019-03-11T04:37:19.590Z,3.37
2019-03-11T04:39:47.344Z,3.40
2019-03-11T04:42:15.072Z,3.70
2019-03-11T04:44:42.842Z,3.47
2019-03-11T04:47:10.605Z,3.57
2019-03-11T04:49:38.333Z,3.97
2019-03-11T04:52:06.069Z,4.60
2019-03-11T04:54:33.801Z,3.70
2019-03-11T04:57:02.489Z,3.63
2019-03-11T04:59:30.601Z,3.53
2019-03-11T05:01:58.353Z,4.10
2019-03-11T05:04:26.078Z,3.83
2019-03-11T05:06:53.918Z,4.03
2019-03-11T05:09:21.649Z,4.07
2019-03-11T05:11:49.395Z,3.87
2019-03-11T05:14:17.152Z,4.27
2019-03-11T05:16:44.894Z,3.77
2019-03-11T05:19:12.630Z,3.53
2019-03-11T05:21:40.379Z,3.83
2019-03-11T05:24:08.129Z,3.53
2019-03-11T05:26:35.874Z,3.10
2019-03-11T05:29:03.702Z,3.87
2019-03-11T05:31:31.589Z,3.97
2019-03-11T05:33:59.682Z,3.83
2019-03-11T05:36:27.423Z,6.27
2019-03-11T05:38:55.161Z,4.47
2019-03-11T05:41:22.915Z,5.27
2019-03-11T05:43:50.629Z,2.73
2019-03-11T05:46:18.415Z,3.33
2019-03-11T05:48:46.134Z,3.83
2019-03-11T05:51:13.854Z,4.30
2019-03-11T05:53:41.617Z,4.63
2019-03-11T05:56:09.349Z,4.73
2019-03-11T05:58:37.113Z,3.93
2019-03-11T06:01:04.862Z,4.13
2019-03-11T06:03:32.621Z,4.80
2019-03-11T06:06:00.360Z,4.03
2019-03-11T06:08:28.157Z,5.67
2019-03-11T06:10:56.891Z,4.70
2019-03-11T06:13:35.352Z,4.20
2019-03-11T06:15:54.394Z,4.60
2019-03-11T06:18:44.066Z,3.67
2019-03-11T06:21:32.853Z,5.37
2019-03-11T06:24:00.621Z,5.30
2019-03-11T06:26:28.361Z,5.33
2019-03-11T06:28:56.117Z,5.63
2019-03-11T06:31:23.841Z,4.73
2019-03-11T06:33:51.572Z,5.23
2019-03-11T06:36:19.297Z,5.97
2019-03-11T06:38:47.062Z,24.53
2019-03-11T06:41:15.044Z,6.27
2019-03-11T06:43:42.837Z,5.33
2019-03-11T06:46:10.612Z,5.93
2019-03-11T06:48:39.573Z,5.70
2019-03-11T06:51:09.056Z,5.70
2019-03-11T06:53:37.292Z,6.37
2019-03-11T06:56:05.065Z,4.80
2019-03-11T06:58:32.827Z,5.10
2019-03-11T07:01:00.701Z,4.83
2019-03-11T07:03:28.459Z,4.70
2019-03-11T07:05:56.257Z,3.90
2019-03-11T07:08:24.025Z,5.50
2019-03-11T07:10:51.782Z,6.03
2019-03-11T07:13:19.610Z,4.07
2019-03-11T07:15:47.340Z,5.53
2019-03-11T07:18:15.129Z,5.17
2019-03-11T07:20:42.897Z,6.50
2019-03-11T07:23:10.605Z,4.87
2019-03-11T07:25:38.653Z,4.90
2019-03-11T07:28:06.365Z,5.07
2019-03-11T07:30:34.126Z,7.73
2019-03-11T07:33:02.010Z,5.73
2019-03-11T07:35:29.779Z,4.60
2019-03-11T07:37:57.558Z,5.40
2019-03-11T07:40:30.185Z,5.10
2019-03-11T07:42:54.830Z,5.63
2019-03-11T07:45:22.566Z,4.93
2019-03-11T07:47:50.307Z,4.87
2019-03-11T07:50:18.093Z,5.33
2019-03-11T07:52:45.838Z,6.07
2019-03-11T07:55:13.586Z,5.63
2019-03-11T07:57:41.343Z,5.77
2019-03-11T08:00:09.202Z,4.53
2019-03-11T08:02:36.970Z,5.73
2019-03-11T08:05:05.365Z,5.80
2019-03-11T08:07:33.436Z,4.43
2019-03-11T08:10:01.373Z,5.47
2019-03-11T08:12:29.109Z,5.83
2019-03-11T08:14:56.896Z,5.83
2019-03-11T08:17:24.629Z,6.43
2019-03-11T08:19:52.393Z,4.80
2019-03-11T08:22:20.154Z,4.00
2019-03-11T08:24:47.925Z,4.83
2019-03-11T08:27:15.698Z,5.60
2019-03-11T08:29:43.490Z,5.77
2019-03-11T08:32:11.486Z,6.07
2019-03-11T08:34:39.821Z,5.33
2019-03-11T08:37:07.852Z,4.77
2019-03-11T08:39:35.591Z,5.67
2019-03-11T08:42:03.605Z,5.53
2019-03-11T08:44:31.338Z,4.40
2019-03-11T08:46:59.102Z,5.07
2019-03-11T08:49:26.993Z,6.07
2019-03-11T08:51:54.729Z,5.13
2019-03-11T08:54:22.492Z,5.00
2019-03-11T08:56:50.246Z,4.87
2019-03-11T08:59:17.969Z,4.60
2019-03-11T09:01:45.879Z,4.13
2019-03-11T09:04:13.915Z,3.77
2019-03-11T09:06:41.649Z,4.57
2019-03-11T09:09:10.898Z,3.43
2019-03-11T09:11:38.669Z,3.80
2019-03-11T09:14:06.414Z,4.13
2019-03-11T09:16:34.139Z,4.80
2019-03-11T09:19:02.004Z,4.13
2019-03-11T09:21:29.761Z,3.50
2019-03-11T09:23:57.513Z,3.17
2019-03-11T09:26:25.281Z,3.90
2019-03-11T09:28:53.017Z,3.47
2019-03-11T09:31:20.791Z,3.30
2019-03-11T09:33:48.529Z,3.57
2019-03-11T09:36:16.302Z,3.00
2019-03-11T09:38:44.043Z,2.93
2019-03-11T09:41:11.772Z,2.23
2019-03-11T09:43:39.561Z,2.63
2019-03-11T09:46:07.309Z,2.50
2019-03-11T09:48:35.163Z,2.93
2019-03-11T09:51:02.944Z,2.20
2019-03-11T09:53:30.696Z,2.73
2019-03-11T09:55:58.491Z,2.07
2019-03-11T09:58:26.230Z,2.47
2019-03-11T10:00:54.171Z,2.43
2019-03-11T10:03:22.033Z,2.63
2019-03-11T10:05:49.676Z,3.00
2019-03-11T10:08:17.463Z,2.50
2019-03-11T10:10:45.326Z,2.63
2019-03-11T10:13:13.063Z,1.60
2019-03-11T10:15:40.793Z,2.00
2019-03-11T10:18:08.565Z,2.37
2019-03-11T10:20:36.335Z,3.42
2019-03-11T10:23:04.106Z,3.27
2019-03-11T10:25:31.807Z,2.27
2019-03-11T10:27:59.549Z,2.83
2019-03-11T10:30:27.288Z,2.83
2019-03-11T10:32:55.014Z,2.67
2019-03-11T10:35:38.119Z,2.60
2019-03-11T10:37:52.302Z,2.17
2019-03-11T10:40:20.301Z,2.50
2019-03-11T10:42:48.189Z,2.77
2019-03-11T10:45:15.917Z,2.30
2019-03-11T10:47:43.648Z,3.40
2019-03-11T10:50:11.458Z,4.03
2019-03-11T10:52:39.206Z,3.20
2019-03-11T10:55:08.327Z,2.80
2019-03-11T10:57:36.072Z,2.53
2019-03-11T11:00:05.874Z,2.47
2019-03-11T11:02:33.661Z,2.43
2019-03-11T11:05:01.630Z,2.57
2019-03-11T11:07:29.402Z,3.25
2019-03-11T11:09:57.148Z,2.57
2019-03-11T11:12:25.134Z,2.83
2019-03-11T11:14:53.097Z,2.43
2019-03-11T11:17:20.828Z,2.63
2019-03-11T11:19:48.548Z,3.05
2019-03-11T11:22:16.269Z,2.67
2019-03-11T11:24:44.020Z,3.07
2019-03-11T11:27:11.745Z,2.97
2019-03-11T11:29:39.574Z,3.10
2019-03-11T11:32:07.334Z,2.77
2019-03-11T11:34:35.058Z,2.40
2019-03-11T11:37:02.766Z,2.33
2019-03-11T11:39:30.551Z,2.43
2019-03-11T11:41:58.265Z,2.20
2019-03-11T11:44:26.012Z,2.33
2019-03-11T11:46:53.788Z,2.10
2019-03-11T11:49:21.536Z,2.37
2019-03-11T11:51:49.353Z,2.13
2019-03-11T11:54:17.096Z,2.10
2019-03-11T11:56:44.826Z,1.73
2019-03-11T11:59:12.625Z,1.63
2019-03-11T12:01:40.360Z,2.00
2019-03-11T12:04:08.078Z,2.03
2019-03-11T12:06:35.820Z,1.90
2019-03-11T12:09:04.553Z,1.93
2019-03-11T12:11:32.363Z,2.40
2019-03-11T12:14:00.085Z,2.13
2019-03-11T12:16:27.818Z,1.73
2019-03-11T12:18:55.595Z,2.03
2019-03-11T12:21:23.333Z,2.03
2019-03-11T12:23:51.061Z,1.97
2019-03-11T12:26:18.901Z,2.10
2019-03-11T12:28:46.618Z,1.80
2019-03-11T12:31:14.435Z,1.97
2019-03-11T12:33:42.186Z,2.40
2019-03-11T12:36:09.946Z,2.30
2019-03-11T12:38:37.654Z,2.07
2019-03-11T12:41:05.387Z,2.50
2019-03-11T12:43:33.129Z,1.87
2019-03-11T12:46:00.881Z,2.10
2019-03-11T12:48:28.621Z,1.93
2019-03-11T12:50:56.370Z,2.17
2019-03-11T12:53:24.107Z,2.23
2019-03-11T12:55:51.841Z,2.60
2019-03-11T12:58:19.873Z,1.80
2019-03-11T13:00:47.629Z,2.60
2019-03-11T13:03:15.345Z,2.52
2019-03-11T13:05:43.063Z,2.23
2019-03-11T13:08:10.965Z,2.60
2019-03-11T13:10:38.775Z,2.70
2019-03-11T13:13:06.738Z,2.03
2019-03-11T13:15:34.493Z,1.67
2019-03-11T13:18:29.951Z,2.37
2019-03-11T13:20:58.060Z,1.97
2019-03-11T13:23:25.945Z,1.70
2019-03-11T13:25:53.863Z,1.67
2019-03-11T13:28:21.665Z,1.90
2019-03-11T13:30:49.392Z,2.17
2019-03-11T13:33:17.157Z,2.30
2019-03-11T13:35:44.905Z,2.23
2019-03-11T13:38:12.621Z,1.83
2019-03-11T13:40:40.331Z,2.00
2019-03-11T13:43:08.085Z,1.63
2019-03-11T13:45:35.833Z,1.80
2019-03-11T13:48:03.590Z,2.13
2019-03-11T13:50:31.313Z,2.53
2019-03-11T13:52:59.041Z,1.90
2019-03-11T13:55:26.777Z,2.57
2019-03-11T13:57:54.549Z,2.43
2019-03-11T14:00:22.258Z,1.83
2019-03-11T14:02:50.013Z,1.87
2019-03-11T14:05:17.770Z,1.60
2019-03-11T14:07:45.515Z,2.63
2019-03-11T14:10:13.285Z,2.07
2019-03-11T14:12:41.021Z,1.67
2019-03-11T14:15:09.123Z,1.67
2019-03-11T14:17:36.866Z,2.17
2019-03-11T14:20:04.980Z,2.50
2019-03-11T14:22:32.793Z,2.20
2019-03-11T14:25:00.525Z,1.93
2019-03-11T14:27:28.267Z,2.60
2019-03-11T14:29:56.034Z,2.37
2019-03-11T14:32:23.772Z,1.83
2019-03-11T14:34:51.502Z,1.70
2019-03-11T14:37:19.242Z,1.60
2019-03-11T14:39:47.005Z,2.30
2019-03-11T14:42:15.041Z,1.70
2019-03-11T14:44:42.785Z,1.80
2019-03-11T14:47:10.536Z,1.40
2019-03-11T14:49:38.299Z,1.47
2019-03-11T14:52:06.017Z,1.50
2019-03-11T14:54:33.770Z,1.93
2019-03-11T14:57:01.508Z,1.43
2019-03-11T14:59:29.247Z,1.90
2019-03-11T15:01:57.032Z,1.37
2019-03-11T15:04:24.688Z,1.47
2019-03-11T15:06:52.840Z,1.40
2019-03-11T15:09:20.565Z,2.40
2019-03-11T15:11:48.321Z,1.53
2019-03-11T15:14:16.056Z,1.60
2019-03-11T15:16:43.779Z,1.80
2019-03-11T15:19:11.719Z,2.17
2019-03-11T15:21:39.448Z,2.00
2019-03-11T15:24:07.185Z,1.77
2019-03-11T15:26:34.953Z,1.77
2019-03-11T15:29:02.701Z,1.53
2019-03-11T15:31:30.481Z,2.07
2019-03-11T15:33:58.224Z,1.70
2019-03-11T15:36:33.304Z,2.20
2019-03-11T15:38:55.557Z,1.90
2019-03-11T15:41:23.291Z,1.60
2019-03-11T15:43:51.117Z,2.13
2019-03-11T15:46:18.871Z,2.03
2019-03-11T15:48:46.593Z,1.47
2019-03-11T15:51:14.381Z,2.00
2019-03-11T15:53:42.181Z,1.47
2019-03-11T15:56:09.951Z,2.13
2019-03-11T15:58:37.697Z,1.80
2019-03-11T16:01:05.483Z,1.70
2019-03-11T16:03:36.505Z,1.83
2019-03-11T16:06:02.822Z,1.70
2019-03-11T16:08:30.573Z,1.57
2019-03-11T16:10:58.297Z,2.00
2019-03-11T16:13:26.098Z,1.97
2019-03-11T16:15:53.817Z,1.70
2019-03-11T16:18:21.590Z,1.47
2019-03-11T16:20:49.329Z,1.77
2019-03-11T16:23:17.142Z,2.00
2019-03-11T16:25:44.866Z,1.60
2019-03-11T16:28:12.593Z,1.80
2019-03-11T16:30:40.333Z,1.80
2019-03-11T16:33:08.054Z,2.20
2019-03-11T16:35:35.862Z,1.67
2019-03-11T16:38:03.594Z,1.57
2019-03-11T16:40:31.377Z,2.00
2019-03-11T16:42:59.112Z,1.50
2019-03-11T16:45:26.857Z,1.60
2019-03-11T16:47:54.620Z,2.07
2019-03-11T16:50:22.483Z,1.60
2019-03-11T16:52:50.235Z,2.00
2019-03-11T16:55:20.333Z,1.40
2019-03-11T16:57:48.066Z,1.67
2019-03-11T17:00:17.777Z,1.40
2019-03-11T17:02:54.922Z,2.23
2019-03-11T17:05:22.629Z,1.53
2019-03-11T17:07:50.399Z,1.77
2019-03-11T17:10:18.138Z,1.90
2019-03-11T17:12:45.942Z,1.90
2019-03-11T17:15:13.773Z,1.90
2019-03-11T17:17:41.505Z,2.10
2019-03-11T17:20:10.113Z,2.30
2019-03-11T17:22:37.897Z,3.80
2019-03-11T17:25:07.110Z,1.87
2019-03-11T17:27:34.851Z,2.10
2019-03-11T17:30:02.589Z,2.00
2019-03-11T17:32:30.314Z,2.27
2019-03-11T17:34:58.059Z,2.50
2019-03-11T17:37:25.801Z,2.47
2019-03-11T17:39:53.525Z,1.93
2019-03-11T17:42:21.271Z,2.37
2019-03-11T17:44:49.098Z,2.80
2019-03-11T17:47:16.881Z,2.73
2019-03-11T17:49:44.625Z,3.90
2019-03-11T17:52:12.357Z,4.17
2019-03-11T17:54:40.106Z,3.10
2019-03-11T17:57:07.938Z,3.47
2019-03-11T17:59:35.690Z,4.33
2019-03-11T18:02:10.730Z,3.00
2019-03-11T18:04:38.413Z,2.47
2019-03-11T18:07:06.190Z,2.17
2019-03-11T18:09:33.905Z,2.50
2019-03-11T18:12:01.659Z,2.00
2019-03-11T18:14:29.745Z,2.30
2019-03-11T18:16:57.501Z,2.80
2019-03-11T18:19:25.266Z,1.97
2019-03-11T18:21:52.958Z,2.83
2019-03-11T18:24:20.690Z,2.33
2019-03-11T18:26:48.415Z,2.30
2019-03-11T18:29:16.154Z,2.77
2019-03-11T18:31:43.871Z,3.27
2019-03-11T18:34:11.639Z,2.30
2019-03-11T18:36:39.402Z,2.63
2019-03-11T18:39:08.037Z,2.70
2019-03-11T18:41:35.765Z,2.73
2019-03-11T18:44:03.499Z,3.30
2019-03-11T18:46:31.230Z,2.80
2019-03-11T18:48:58.957Z,2.30
2019-03-11T18:51:26.661Z,3.57
2019-03-11T18:53:54.383Z,4.17
2019-03-11T18:56:22.127Z,4.13
2019-03-11T18:58:49.830Z,4.90
2019-03-11T19:01:17.523Z,4.67
2019-03-11T19:03:45.264Z,5.87
2019-03-11T19:06:12.990Z,10.53
2019-03-11T19:08:40.777Z,6.50
2019-03-11T19:11:08.530Z,5.60
2019-03-11T19:13:36.990Z,6.07
2019-03-11T19:16:04.678Z,5.80
2019-03-11T19:18:32.422Z,7.27
2019-03-11T19:21:00.118Z,7.43
2019-03-11T19:23:27.827Z,5.73
2019-03-11T19:25:55.553Z,5.40
2019-03-11T19:28:23.292Z,4.50
2019-03-11T19:30:51.117Z,4.30
2019-03-11T19:33:19.160Z,4.53
2019-03-11T19:35:46.950Z,4.70
2019-03-11T19:38:14.638Z,4.40
2019-03-11T19:40:42.446Z,4.20
2019-03-11T19:43:10.191Z,4.73
2019-03-11T19:45:37.930Z,5.30
2019-03-11T19:48:05.629Z,4.83
2019-03-11T19:50:33.475Z,4.50
2019-03-11T19:53:01.205Z,5.13
2019-03-11T19:55:28.935Z,16.20
2019-03-11T19:57:56.745Z,19.23
2019-03-11T20:00:24.498Z,15.57
2019-03-11T20:02:52.297Z,15.10
2019-03-11T20:05:21.250Z,10.20
2019-03-11T20:07:48.931Z,9.03
2019-03-11T20:10:16.824Z,8.17
2019-03-11T20:12:44.850Z,11.73
2019-03-11T20:15:12.770Z,10.00
2019-03-11T20:17:40.528Z,11.63
2019-03-11T20:20:09.243Z,9.03
2019-03-11T20:22:37.014Z,6.60
2019-03-11T20:25:06.215Z,4.87
2019-03-11T20:27:33.857Z,4.80
2019-03-11T20:30:01.632Z,4.57
2019-03-11T20:32:29.359Z,4.47
2019-03-11T20:34:57.077Z,4.50
2019-03-11T20:37:25.065Z,5.93
2019-03-11T20:39:52.706Z,5.60
2019-03-11T20:42:20.518Z,12.43
2019-03-11T20:44:48.184Z,24.20
2019-03-11T20:47:15.931Z,21.10
2019-03-11T20:49:43.641Z,18.60
2019-03-11T20:52:11.387Z,13.27
2019-03-11T20:54:39.124Z,18.20
2019-03-11T20:57:06.872Z,20.43
2019-03-11T20:59:34.656Z,17.43
2019-03-11T21:02:02.356Z,13.93
2019-03-11T21:04:30.092Z,14.33
2019-03-11T21:06:57.855Z,14.00
2019-03-11T21:09:25.546Z,16.03
2019-03-11T21:11:54.746Z,14.43
2019-03-11T21:14:22.694Z,13.97
2019-03-11T21:16:50.483Z,13.73
2019-03-11T21:19:18.378Z,14.10
2019-03-11T21:21:47.045Z,16.30
2019-03-11T21:24:14.717Z,17.13
2019-03-11T21:26:42.518Z,16.50
2019-03-11T21:29:19.329Z,14.57
2019-03-11T21:31:47.204Z,15.37
2019-03-11T21:34:16.829Z,16.03
2019-03-11T21:36:44.592Z,19.23
2019-03-11T21:39:16.493Z,20.20
2019-03-11T21:41:46.671Z,18.00
2019-03-11T21:44:17.387Z,46.30
2019-03-11T21:46:48.233Z,49.17
2019-03-11T21:49:17.478Z,39.90
2019-03-11T21:51:45.995Z,24.13
2019-03-11T21:54:16.533Z,26.37
2019-03-11T21:56:47.341Z,21.33
2019-03-11T21:59:19.135Z,20.00
2019-03-11T22:01:48.306Z,18.73
2019-03-11T22:04:16.132Z,19.90
2019-03-11T22:06:47.362Z,15.37
2019-03-11T22:09:17.310Z,14.03
2019-03-11T22:11:47.807Z,15.03
2019-03-11T22:14:17.468Z,15.57
2019-03-11T22:16:45.178Z,15.37
2019-03-11T22:19:16.240Z,12.97
2019-03-11T22:21:43.934Z,14.27
2019-03-11T22:24:11.686Z,12.30
2019-03-11T22:26:39.421Z,13.37
2019-03-11T22:29:07.198Z,14.10
2019-03-11T22:31:34.949Z,14.50
2019-03-11T22:34:03.604Z,18.47
2019-03-11T22:36:32.238Z,19.27
2019-03-11T22:39:04.161Z,14.90
2019-03-11T22:41:34.713Z,13.43
2019-03-11T22:44:05.433Z,13.33
2019-03-11T22:46:33.920Z,13.53
2019-03-11T22:49:04.228Z,16.53
2019-03-11T22:51:34.586Z,13.57
2019-03-11T22:54:02.434Z,13.70
2019-03-11T22:56:32.846Z,15.07
2019-03-11T22:59:00.586Z,16.07
2019-03-11T23:01:28.506Z,15.27
2019-03-11T23:03:56.305Z,14.10
2019-03-11T23:06:24.042Z,16.20
2019-03-11T23:08:51.778Z,14.07
2019-03-11T23:11:19.498Z,13.47
2019-03-11T23:13:47.249Z,13.63
2019-03-11T23:16:15.012Z,13.40
2019-03-11T23:18:42.746Z,12.60
2019-03-11T23:21:10.486Z,12.53
2019-03-11T23:23:38.221Z,11.53
2019-03-11T23:26:05.962Z,10.37
2019-03-11T23:28:36.111Z,8.77
2019-03-11T23:31:03.913Z,8.77
2019-03-11T23:33:31.632Z,9.13
2019-03-11T23:35:59.365Z,9.27
2019-03-11T23:38:27.084Z,8.13
2019-03-11T23:40:54.810Z,8.33
2019-03-11T23:43:22.525Z,8.13
2019-03-11T23:45:50.299Z,6.30
2019-03-11T23:48:19.852Z,5.83
2019-03-11T23:50:47.597Z,6.70
2019-03-11T23:53:15.332Z,7.17
2019-03-11T23:55:44.504Z,7.23
2019-03-11T23:58:12.237Z,7.20
